sensor_id;sensor_type;location;lat;lon;timestamp;temperature;humidity
17092;DHT22;8661;45.700;4.880;2022-11-25T00:00:53;9.20;99.90
17092;DHT22;8661;45.700;4.880;2022-11-25T00:03:20;9.20;99.90
17092;DHT22;8661;45.700;4.880;2022-11-25T00:05:47;9.20;99.90
17092;DHT22;8661;45.700;4.880;2022-11-25T00:08:13;9.10;99.90
17092;DHT22;8661;45.700;4.880;2022-11-25T00:10:40;9.20;99.90
17092;DHT22;8661;45.700;4.880;2022-11-25T00:13:07;9.20;99.90
17092;DHT22;8661;45.700;4.880;2022-11-25T00:15:34;9.20;99.90
17092;DHT22;8661;45.700;4.880;2022-11-25T00:18:02;9.20;99.90
17092;DHT22;8661;45.700;4.880;2022-11-25T00:20:29;9.30;99.90
17092;DHT22;8661;45.700;4.880;2022-11-25T00:22:56;9.30;99.90
17092;DHT22;8661;45.700;4.880;2022-11-25T00:25:23;9.30;99.90
17092;DHT22;8661;45.700;4.880;2022-11-25T00:27:51;9.30;99.90
17092;DHT22;8661;45.700;4.880;2022-11-25T00:30:18;9.30;99.90
17092;DHT22;8661;45.700;4.880;2022-11-25T00:32:45;9.30;99.90
17092;DHT22;8661;45.700;4.880;2022-11-25T00:35:13;9.40;99.90
17092;DHT22;8661;45.700;4.880;2022-11-25T00:37:40;9.40;99.90
17092;DHT22;8661;45.700;4.880;2022-11-25T00:40:08;9.40;99.90
17092;DHT22;8661;45.700;4.880;2022-11-25T00:42:35;9.40;99.90
17092;DHT22;8661;45.700;4.880;2022-11-25T00:45:19;9.40;99.90
17092;DHT22;8661;45.700;4.880;2022-11-25T00:47:46;9.40;99.90
17092;DHT22;8661;45.700;4.880;2022-11-25T00:50:14;9.40;99.90
17092;DHT22;8661;45.700;4.880;2022-11-25T00:52:41;9.40;99.90
17092;DHT22;8661;45.700;4.880;2022-11-25T00:55:08;9.40;99.90
17092;DHT22;8661;45.700;4.880;2022-11-25T00:57:35;9.40;99.90
17092;DHT22;8661;45.700;4.880;2022-11-25T01:00:03;9.40;99.90
17092;DHT22;8661;45.700;4.880;2022-11-25T01:02:30;9.40;99.90
17092;DHT22;8661;45.700;4.880;2022-11-25T01:04:57;9.50;99.90
17092;DHT22;8661;45.700;4.880;2022-11-25T01:07:25;9.50;99.90
17092;DHT22;8661;45.700;4.880;2022-11-25T01:09:52;9.50;99.90
17092;DHT22;8661;45.700;4.880;2022-11-25T01:12:19;9.50;99.90
17092;DHT22;8661;45.700;4.880;2022-11-25T01:14:45;9.60;99.90
17092;DHT22;8661;45.700;4.880;2022-11-25T01:17:12;9.60;99.90
17092;DHT22;8661;45.700;4.880;2022-11-25T01:19:39;9.60;99.90
17092;DHT22;8661;45.700;4.880;2022-11-25T01:22:07;9.60;99.90
17092;DHT22;8661;45.700;4.880;2022-11-25T01:24:38;9.70;99.90
17092;DHT22;8661;45.700;4.880;2022-11-25T01:27:05;9.70;99.90
17092;DHT22;8661;45.700;4.880;2022-11-25T01:29:32;9.70;99.90
17092;DHT22;8661;45.700;4.880;2022-11-25T01:31:58;9.80;99.90
17092;DHT22;8661;45.700;4.880;2022-11-25T01:34:26;9.70;99.90
17092;DHT22;8661;45.700;4.880;2022-11-25T01:36:56;9.70;99.90
17092;DHT22;8661;45.700;4.880;2022-11-25T01:39:24;9.70;99.90
17092;DHT22;8661;45.700;4.880;2022-11-25T01:41:52;9.70;99.90
17092;DHT22;8661;45.700;4.880;2022-11-25T01:44:21;9.70;99.90
17092;DHT22;8661;45.700;4.880;2022-11-25T01:46:57;9.70;99.90
17092;DHT22;8661;45.700;4.880;2022-11-25T01:49:29;9.70;99.90
17092;DHT22;8661;45.700;4.880;2022-11-25T01:52:02;9.80;99.90
17092;DHT22;8661;45.700;4.880;2022-11-25T01:54:35;9.70;99.90
17092;DHT22;8661;45.700;4.880;2022-11-25T01:57:07;9.70;99.90
17092;DHT22;8661;45.700;4.880;2022-11-25T01:59:38;9.70;99.90
17092;DHT22;8661;45.700;4.880;2022-11-25T02:02:07;9.70;99.90
17092;DHT22;8661;45.700;4.880;2022-11-25T02:04:38;9.70;99.90
17092;DHT22;8661;45.700;4.880;2022-11-25T02:07:09;9.60;99.90
17092;DHT22;8661;45.700;4.880;2022-11-25T02:09:40;9.60;99.90
17092;DHT22;8661;45.700;4.880;2022-11-25T02:12:10;9.60;99.90
17092;DHT22;8661;45.700;4.880;2022-11-25T02:14:38;9.60;99.90
17092;DHT22;8661;45.700;4.880;2022-11-25T02:17:05;9.50;99.90
17092;DHT22;8661;45.700;4.880;2022-11-25T02:19:42;9.50;99.90
17092;DHT22;8661;45.700;4.880;2022-11-25T02:22:20;9.50;99.90
17092;DHT22;8661;45.700;4.880;2022-11-25T02:24:52;9.40;99.90
17092;DHT22;8661;45.700;4.880;2022-11-25T02:27:21;9.40;99.90
17092;DHT22;8661;45.700;4.880;2022-11-25T02:29:49;9.40;99.90
17092;DHT22;8661;45.700;4.880;2022-11-25T02:32:20;9.40;99.90
17092;DHT22;8661;45.700;4.880;2022-11-25T02:34:47;9.40;99.90
17092;DHT22;8661;45.700;4.880;2022-11-25T02:37:15;9.40;99.90
17092;DHT22;8661;45.700;4.880;2022-11-25T02:39:44;9.30;99.90
17092;DHT22;8661;45.700;4.880;2022-11-25T02:42:11;9.30;99.90
17092;DHT22;8661;45.700;4.880;2022-11-25T02:44:40;9.30;99.90
17092;DHT22;8661;45.700;4.880;2022-11-25T02:47:07;9.30;99.90
17092;DHT22;8661;45.700;4.880;2022-11-25T02:49:34;9.20;99.90
17092;DHT22;8661;45.700;4.880;2022-11-25T02:52:01;9.10;99.90
17092;DHT22;8661;45.700;4.880;2022-11-25T02:54:28;9.10;99.90
17092;DHT22;8661;45.700;4.880;2022-11-25T02:56:55;9.10;99.90
17092;DHT22;8661;45.700;4.880;2022-11-25T02:59:21;9.00;99.90
17092;DHT22;8661;45.700;4.880;2022-11-25T03:01:50;9.00;99.90
17092;DHT22;8661;45.700;4.880;2022-11-25T03:04:17;9.00;99.90
17092;DHT22;8661;45.700;4.880;2022-11-25T03:06:44;8.90;99.90
17092;DHT22;8661;45.700;4.880;2022-11-25T03:09:11;8.80;99.90
17092;DHT22;8661;45.700;4.880;2022-11-25T03:11:38;8.80;99.90
17092;DHT22;8661;45.700;4.880;2022-11-25T03:14:22;8.80;99.90
17092;DHT22;8661;45.700;4.880;2022-11-25T03:16:50;8.80;99.90
17092;DHT22;8661;45.700;4.880;2022-11-25T03:19:17;8.90;99.90
17092;DHT22;8661;45.700;4.880;2022-11-25T03:21:44;8.80;99.90
17092;DHT22;8661;45.700;4.880;2022-11-25T03:24:11;8.90;99.90
17092;DHT22;8661;45.700;4.880;2022-11-25T03:26:37;8.90;99.90
17092;DHT22;8661;45.700;4.880;2022-11-25T03:29:05;9.00;99.90
17092;DHT22;8661;45.700;4.880;2022-11-25T03:31:32;9.00;99.90
17092;DHT22;8661;45.700;4.880;2022-11-25T03:34:00;9.00;99.90
17092;DHT22;8661;45.700;4.880;2022-11-25T03:36:27;9.00;99.90
17092;DHT22;8661;45.700;4.880;2022-11-25T03:38:54;9.00;99.90
17092;DHT22;8661;45.700;4.880;2022-11-25T03:41:20;9.00;99.90
17092;DHT22;8661;45.700;4.880;2022-11-25T03:43:47;9.10;99.90
17092;DHT22;8661;45.700;4.880;2022-11-25T03:46:14;9.10;99.90
17092;DHT22;8661;45.700;4.880;2022-11-25T03:48:41;9.20;99.90
17092;DHT22;8661;45.700;4.880;2022-11-25T03:51:09;9.10;99.90
17092;DHT22;8661;45.700;4.880;2022-11-25T03:53:36;9.20;99.90
17092;DHT22;8661;45.700;4.880;2022-11-25T03:56:03;9.20;99.90
17092;DHT22;8661;45.700;4.880;2022-11-25T03:58:30;9.30;99.90
17092;DHT22;8661;45.700;4.880;2022-11-25T04:00:59;9.30;99.90
17092;DHT22;8661;45.700;4.880;2022-11-25T04:03:26;9.30;99.90
17092;DHT22;8661;45.700;4.880;2022-11-25T04:05:53;9.30;99.90
17092;DHT22;8661;45.700;4.880;2022-11-25T04:08:22;9.30;99.90
17092;DHT22;8661;45.700;4.880;2022-11-25T04:10:49;9.30;99.90
17092;DHT22;8661;45.700;4.880;2022-11-25T04:13:16;9.30;99.90
17092;DHT22;8661;45.700;4.880;2022-11-25T04:15:43;9.30;99.90
17092;DHT22;8661;45.700;4.880;2022-11-25T04:18:11;9.30;99.90
17092;DHT22;8661;45.700;4.880;2022-11-25T04:20:38;9.30;99.90
17092;DHT22;8661;45.700;4.880;2022-11-25T04:23:05;9.30;99.90
17092;DHT22;8661;45.700;4.880;2022-11-25T04:25:34;9.30;99.90
17092;DHT22;8661;45.700;4.880;2022-11-25T04:28:02;9.30;99.90
17092;DHT22;8661;45.700;4.880;2022-11-25T04:30:29;9.30;99.90
17092;DHT22;8661;45.700;4.880;2022-11-25T04:32:57;9.30;99.90
17092;DHT22;8661;45.700;4.880;2022-11-25T04:35:23;9.30;99.90
17092;DHT22;8661;45.700;4.880;2022-11-25T04:37:50;9.30;99.90
17092;DHT22;8661;45.700;4.880;2022-11-25T04:40:17;9.30;99.90
17092;DHT22;8661;45.700;4.880;2022-11-25T04:42:46;9.30;99.90
17092;DHT22;8661;45.700;4.880;2022-11-25T04:45:15;9.30;99.90
17092;DHT22;8661;45.700;4.880;2022-11-25T04:47:43;9.30;99.90
17092;DHT22;8661;45.700;4.880;2022-11-25T04:50:14;9.30;99.90
17092;DHT22;8661;45.700;4.880;2022-11-25T04:52:44;9.30;99.90
17092;DHT22;8661;45.700;4.880;2022-11-25T04:55:11;9.30;99.90
17092;DHT22;8661;45.700;4.880;2022-11-25T04:57:38;9.30;99.90
17092;DHT22;8661;45.700;4.880;2022-11-25T05:00:08;9.30;99.90
17092;DHT22;8661;45.700;4.880;2022-11-25T05:02:34;9.30;99.90
17092;DHT22;8661;45.700;4.880;2022-11-25T05:05:02;9.40;99.90
17092;DHT22;8661;45.700;4.880;2022-11-25T05:07:29;9.20;99.90
17092;DHT22;8661;45.700;4.880;2022-11-25T05:09:56;9.20;99.90
17092;DHT22;8661;45.700;4.880;2022-11-25T05:12:25;9.10;99.90
17092;DHT22;8661;45.700;4.880;2022-11-25T05:14:53;9.10;99.90
17092;DHT22;8661;45.700;4.880;2022-11-25T05:17:23;9.10;99.90
17092;DHT22;8661;45.700;4.880;2022-11-25T05:19:50;9.00;99.90
17092;DHT22;8661;45.700;4.880;2022-11-25T05:22:19;9.00;99.90
17092;DHT22;8661;45.700;4.880;2022-11-25T05:24:47;8.90;99.90
17092;DHT22;8661;45.700;4.880;2022-11-25T05:27:15;8.90;99.90
17092;DHT22;8661;45.700;4.880;2022-11-25T05:29:42;8.90;99.90
17092;DHT22;8661;45.700;4.880;2022-11-25T05:32:10;8.90;99.90
17092;DHT22;8661;45.700;4.880;2022-11-25T05:34:38;8.90;99.90
17092;DHT22;8661;45.700;4.880;2022-11-25T05:37:05;8.90;99.90
17092;DHT22;8661;45.700;4.880;2022-11-25T05:39:33;9.00;99.90
17092;DHT22;8661;45.700;4.880;2022-11-25T05:42:00;8.90;99.90
17092;DHT22;8661;45.700;4.880;2022-11-25T05:44:27;8.90;99.90
17092;DHT22;8661;45.700;4.880;2022-11-25T05:46:54;8.90;99.90
17092;DHT22;8661;45.700;4.880;2022-11-25T05:49:21;8.80;99.90
17092;DHT22;8661;45.700;4.880;2022-11-25T05:51:49;8.80;99.90
17092;DHT22;8661;45.700;4.880;2022-11-25T05:54:16;8.70;99.90
17092;DHT22;8661;45.700;4.880;2022-11-25T05:56:43;8.70;99.90
17092;DHT22;8661;45.700;4.880;2022-11-25T05:59:10;8.60;99.90
17092;DHT22;8661;45.700;4.880;2022-11-25T06:01:36;8.60;99.90
17092;DHT22;8661;45.700;4.880;2022-11-25T06:04:04;8.60;99.90
17092;DHT22;8661;45.700;4.880;2022-11-25T06:06:32;8.60;99.90
17092;DHT22;8661;45.700;4.880;2022-11-25T06:09:00;8.70;99.90
17092;DHT22;8661;45.700;4.880;2022-11-25T06:11:27;8.60;99.90
17092;DHT22;8661;45.700;4.880;2022-11-25T06:13:55;8.60;99.90
17092;DHT22;8661;45.700;4.880;2022-11-25T06:16:24;8.60;99.90
17092;DHT22;8661;45.700;4.880;2022-11-25T06:18:51;8.60;99.90
17092;DHT22;8661;45.700;4.880;2022-11-25T06:21:18;8.60;99.90
17092;DHT22;8661;45.700;4.880;2022-11-25T06:23:50;8.60;99.90
17092;DHT22;8661;45.700;4.880;2022-11-25T06:26:21;8.60;99.90
17092;DHT22;8661;45.700;4.880;2022-11-25T06:28:52;8.60;99.90
17092;DHT22;8661;45.700;4.880;2022-11-25T06:31:21;8.60;99.90
17092;DHT22;8661;45.700;4.880;2022-11-25T06:33:50;8.60;99.90
17092;DHT22;8661;45.700;4.880;2022-11-25T06:36:18;8.70;99.90
17092;DHT22;8661;45.700;4.880;2022-11-25T06:38:47;8.60;99.90
17092;DHT22;8661;45.700;4.880;2022-11-25T06:41:15;8.60;99.90
17092;DHT22;8661;45.700;4.880;2022-11-25T06:43:44;8.60;99.90
17092;DHT22;8661;45.700;4.880;2022-11-25T06:46:13;8.60;99.90
17092;DHT22;8661;45.700;4.880;2022-11-25T06:48:40;8.60;99.90
17092;DHT22;8661;45.700;4.880;2022-11-25T06:51:09;8.50;99.90
17092;DHT22;8661;45.700;4.880;2022-11-25T06:53:37;8.60;99.90
17092;DHT22;8661;45.700;4.880;2022-11-25T06:56:06;8.50;99.90
17092;DHT22;8661;45.700;4.880;2022-11-25T06:58:34;8.50;99.90
17092;DHT22;8661;45.700;4.880;2022-11-25T07:01:05;8.60;99.90
17092;DHT22;8661;45.700;4.880;2022-11-25T07:03:32;8.60;99.90
17092;DHT22;8661;45.700;4.880;2022-11-25T07:06:01;8.60;99.90
17092;DHT22;8661;45.700;4.880;2022-11-25T07:08:28;8.60;99.90
17092;DHT22;8661;45.700;4.880;2022-11-25T07:11:01;8.60;99.90
17092;DHT22;8661;45.700;4.880;2022-11-25T07:13:28;8.50;99.90
17092;DHT22;8661;45.700;4.880;2022-11-25T07:15:55;8.60;99.90
17092;DHT22;8661;45.700;4.880;2022-11-25T07:18:28;8.60;99.90
17092;DHT22;8661;45.700;4.880;2022-11-25T07:21:00;8.70;99.90
17092;DHT22;8661;45.700;4.880;2022-11-25T07:23:27;8.70;99.90
17092;DHT22;8661;45.700;4.880;2022-11-25T07:25:54;8.80;99.90
17092;DHT22;8661;45.700;4.880;2022-11-25T07:28:21;8.90;99.90
17092;DHT22;8661;45.700;4.880;2022-11-25T07:30:47;9.00;99.90
17092;DHT22;8661;45.700;4.880;2022-11-25T07:33:15;9.10;99.90
17092;DHT22;8661;45.700;4.880;2022-11-25T07:35:43;9.10;99.90
17092;DHT22;8661;45.700;4.880;2022-11-25T07:38:10;9.20;99.90
17092;DHT22;8661;45.700;4.880;2022-11-25T07:40:37;9.20;99.90
17092;DHT22;8661;45.700;4.880;2022-11-25T07:43:03;9.30;99.90
17092;DHT22;8661;45.700;4.880;2022-11-25T07:45:30;9.50;99.90
17092;DHT22;8661;45.700;4.880;2022-11-25T07:47:57;9.50;99.90
17092;DHT22;8661;45.700;4.880;2022-11-25T07:50:26;9.60;99.90
17092;DHT22;8661;45.700;4.880;2022-11-25T07:52:54;9.60;99.90
17092;DHT22;8661;45.700;4.880;2022-11-25T07:55:21;9.70;99.90
17092;DHT22;8661;45.700;4.880;2022-11-25T07:57:48;9.70;99.90
17092;DHT22;8661;45.700;4.880;2022-11-25T08:00:15;9.70;99.90
17092;DHT22;8661;45.700;4.880;2022-11-25T08:02:42;9.80;99.90
17092;DHT22;8661;45.700;4.880;2022-11-25T08:05:09;9.90;99.90
17092;DHT22;8661;45.700;4.880;2022-11-25T08:07:36;10.00;99.90
17092;DHT22;8661;45.700;4.880;2022-11-25T08:10:06;10.00;99.90
17092;DHT22;8661;45.700;4.880;2022-11-25T08:12:33;10.10;99.90
17092;DHT22;8661;45.700;4.880;2022-11-25T08:15:00;10.20;99.90
17092;DHT22;8661;45.700;4.880;2022-11-25T08:17:27;10.30;99.90
17092;DHT22;8661;45.700;4.880;2022-11-25T08:19:54;10.40;99.90
17092;DHT22;8661;45.700;4.880;2022-11-25T08:22:21;10.40;99.90
17092;DHT22;8661;45.700;4.880;2022-11-25T08:24:48;10.60;99.90
17092;DHT22;8661;45.700;4.880;2022-11-25T08:27:16;10.70;99.90
17092;DHT22;8661;45.700;4.880;2022-11-25T08:29:43;10.80;99.90
17092;DHT22;8661;45.700;4.880;2022-11-25T08:32:10;10.80;99.90
17092;DHT22;8661;45.700;4.880;2022-11-25T08:34:37;10.80;99.90
17092;DHT22;8661;45.700;4.880;2022-11-25T08:37:04;10.90;99.90
17092;DHT22;8661;45.700;4.880;2022-11-25T08:39:30;11.10;99.90
17092;DHT22;8661;45.700;4.880;2022-11-25T08:41:57;11.30;99.90
17092;DHT22;8661;45.700;4.880;2022-11-25T08:44:26;11.50;99.90
17092;DHT22;8661;45.700;4.880;2022-11-25T08:46:54;11.80;99.90
17092;DHT22;8661;45.700;4.880;2022-11-25T08:49:21;12.00;99.90
17092;DHT22;8661;45.700;4.880;2022-11-25T08:51:51;12.40;99.90
17092;DHT22;8661;45.700;4.880;2022-11-25T08:54:18;12.70;99.90
17092;DHT22;8661;45.700;4.880;2022-11-25T08:56:44;12.90;99.90
17092;DHT22;8661;45.700;4.880;2022-11-25T08:59:11;13.60;99.90
17092;DHT22;8661;45.700;4.880;2022-11-25T09:01:40;14.00;99.90
17092;DHT22;8661;45.700;4.880;2022-11-25T09:04:07;13.90;99.90
17092;DHT22;8661;45.700;4.880;2022-11-25T09:06:33;13.70;99.90
17092;DHT22;8661;45.700;4.880;2022-11-25T09:09:00;13.60;99.90
17092;DHT22;8661;45.700;4.880;2022-11-25T09:11:27;13.60;99.90
17092;DHT22;8661;45.700;4.880;2022-11-25T09:13:54;13.50;99.90
17092;DHT22;8661;45.700;4.880;2022-11-25T09:16:21;13.40;99.90
17092;DHT22;8661;45.700;4.880;2022-11-25T09:18:49;13.40;99.90
17092;DHT22;8661;45.700;4.880;2022-11-25T09:21:16;13.40;99.90
17092;DHT22;8661;45.700;4.880;2022-11-25T09:23:44;13.50;99.90
17092;DHT22;8661;45.700;4.880;2022-11-25T09:26:21;13.50;99.90
17092;DHT22;8661;45.700;4.880;2022-11-25T09:28:48;13.50;99.90
17092;DHT22;8661;45.700;4.880;2022-11-25T09:31:15;13.50;99.90
17092;DHT22;8661;45.700;4.880;2022-11-25T09:33:42;13.40;99.90
17092;DHT22;8661;45.700;4.880;2022-11-25T09:36:13;13.40;99.90
17092;DHT22;8661;45.700;4.880;2022-11-25T09:38:41;13.40;99.90
17092;DHT22;8661;45.700;4.880;2022-11-25T09:41:17;13.30;99.90
17092;DHT22;8661;45.700;4.880;2022-11-25T09:44:17;13.40;99.90
17092;DHT22;8661;45.700;4.880;2022-11-25T09:47:12;13.40;99.90
17092;DHT22;8661;45.700;4.880;2022-11-25T09:49:52;13.30;99.90
17092;DHT22;8661;45.700;4.880;2022-11-25T09:52:32;13.30;99.90
17092;DHT22;8661;45.700;4.880;2022-11-25T09:55:05;13.40;99.90
17092;DHT22;8661;45.700;4.880;2022-11-25T09:57:43;13.40;99.90
17092;DHT22;8661;45.700;4.880;2022-11-25T10:00:16;13.40;99.90
17092;DHT22;8661;45.700;4.880;2022-11-25T10:02:49;13.50;99.90
17092;DHT22;8661;45.700;4.880;2022-11-25T10:05:20;13.40;99.90
17092;DHT22;8661;45.700;4.880;2022-11-25T10:07:53;13.30;99.90
17092;DHT22;8661;45.700;4.880;2022-11-25T10:10:25;13.20;99.90
17092;DHT22;8661;45.700;4.880;2022-11-25T10:12:54;13.10;99.90
17092;DHT22;8661;45.700;4.880;2022-11-25T10:15:25;13.00;99.90
17092;DHT22;8661;45.700;4.880;2022-11-25T10:17:54;12.90;99.90
17092;DHT22;8661;45.700;4.880;2022-11-25T10:20:25;12.80;99.90
17092;DHT22;8661;45.700;4.880;2022-11-25T10:22:56;12.70;99.90
17092;DHT22;8661;45.700;4.880;2022-11-25T10:25:29;12.60;99.90
17092;DHT22;8661;45.700;4.880;2022-11-25T10:27:58;12.70;99.90
17092;DHT22;8661;45.700;4.880;2022-11-25T10:30:29;12.70;99.90
17092;DHT22;8661;45.700;4.880;2022-11-25T10:33:03;12.80;99.90
17092;DHT22;8661;45.700;4.880;2022-11-25T10:35:35;12.90;99.90
17092;DHT22;8661;45.700;4.880;2022-11-25T10:38:10;12.90;99.90
17092;DHT22;8661;45.700;4.880;2022-11-25T10:40:38;13.00;99.90
17092;DHT22;8661;45.700;4.880;2022-11-25T10:43:11;13.10;99.90
17092;DHT22;8661;45.700;4.880;2022-11-25T10:45:44;13.10;99.90
17092;DHT22;8661;45.700;4.880;2022-11-25T10:48:24;13.10;99.90
17092;DHT22;8661;45.700;4.880;2022-11-25T10:51:02;13.00;99.90
17092;DHT22;8661;45.700;4.880;2022-11-25T10:53:30;13.00;99.90
17092;DHT22;8661;45.700;4.880;2022-11-25T10:56:00;13.10;99.90
17092;DHT22;8661;45.700;4.880;2022-11-25T10:58:33;13.20;99.90
17092;DHT22;8661;45.700;4.880;2022-11-25T11:01:04;13.40;99.90
17092;DHT22;8661;45.700;4.880;2022-11-25T11:03:32;13.40;99.90
17092;DHT22;8661;45.700;4.880;2022-11-25T11:05:59;13.50;99.90
17092;DHT22;8661;45.700;4.880;2022-11-25T11:08:27;13.40;99.90
17092;DHT22;8661;45.700;4.880;2022-11-25T11:11:16;13.50;99.90
17092;DHT22;8661;45.700;4.880;2022-11-25T11:13:44;13.50;99.90
17092;DHT22;8661;45.700;4.880;2022-11-25T11:16:24;13.50;99.90
17092;DHT22;8661;45.700;4.880;2022-11-25T11:18:53;13.50;99.90
17092;DHT22;8661;45.700;4.880;2022-11-25T11:21:23;13.50;99.90
17092;DHT22;8661;45.700;4.880;2022-11-25T11:23:52;13.50;99.90
17092;DHT22;8661;45.700;4.880;2022-11-25T11:26:26;13.50;99.90
17092;DHT22;8661;45.700;4.880;2022-11-25T11:28:59;13.40;99.90
17092;DHT22;8661;45.700;4.880;2022-11-25T11:31:30;13.30;99.90
17092;DHT22;8661;45.700;4.880;2022-11-25T11:34:03;13.30;99.90
17092;DHT22;8661;45.700;4.880;2022-11-25T11:36:41;13.20;99.90
17092;DHT22;8661;45.700;4.880;2022-11-25T11:39:28;13.20;99.90
17092;DHT22;8661;45.700;4.880;2022-11-25T11:42:08;13.20;99.90
17092;DHT22;8661;45.700;4.880;2022-11-25T11:44:50;13.20;99.90
17092;DHT22;8661;45.700;4.880;2022-11-25T11:47:26;13.20;99.90
17092;DHT22;8661;45.700;4.880;2022-11-25T11:50:04;13.10;99.90
17092;DHT22;8661;45.700;4.880;2022-11-25T11:52:45;13.10;99.90
17092;DHT22;8661;45.700;4.880;2022-11-25T11:55:24;13.00;99.90
17092;DHT22;8661;45.700;4.880;2022-11-25T11:58:00;12.90;99.90
17092;DHT22;8661;45.700;4.880;2022-11-25T12:00:31;12.90;99.90
17092;DHT22;8661;45.700;4.880;2022-11-25T12:03:02;12.80;99.90
17092;DHT22;8661;45.700;4.880;2022-11-25T12:05:34;12.80;99.90
17092;DHT22;8661;45.700;4.880;2022-11-25T12:08:05;12.70;99.90
17092;DHT22;8661;45.700;4.880;2022-11-25T12:10:37;12.70;99.90
17092;DHT22;8661;45.700;4.880;2022-11-25T12:13:14;12.60;99.90
17092;DHT22;8661;45.700;4.880;2022-11-25T12:15:49;12.60;99.90
17092;DHT22;8661;45.700;4.880;2022-11-25T12:18:31;12.60;99.90
17092;DHT22;8661;45.700;4.880;2022-11-25T12:21:02;12.60;99.90
17092;DHT22;8661;45.700;4.880;2022-11-25T12:23:38;12.60;99.90
17092;DHT22;8661;45.700;4.880;2022-11-25T12:26:21;12.60;99.90
17092;DHT22;8661;45.700;4.880;2022-11-25T12:28:56;12.50;99.90
17092;DHT22;8661;45.700;4.880;2022-11-25T12:31:26;12.50;99.90
17092;DHT22;8661;45.700;4.880;2022-11-25T12:34:01;12.50;99.90
17092;DHT22;8661;45.700;4.880;2022-11-25T12:36:33;12.50;99.90
17092;DHT22;8661;45.700;4.880;2022-11-25T12:39:02;12.40;99.90
17092;DHT22;8661;45.700;4.880;2022-11-25T12:41:38;12.30;99.90
17092;DHT22;8661;45.700;4.880;2022-11-25T12:44:13;12.30;99.90
17092;DHT22;8661;45.700;4.880;2022-11-25T12:46:44;12.20;99.90
17092;DHT22;8661;45.700;4.880;2022-11-25T12:49:16;12.10;99.90
17092;DHT22;8661;45.700;4.880;2022-11-25T12:52:10;12.10;99.90
17092;DHT22;8661;45.700;4.880;2022-11-25T12:55:03;12.10;99.90
17092;DHT22;8661;45.700;4.880;2022-11-25T12:58:08;12.00;99.90
17092;DHT22;8661;45.700;4.880;2022-11-25T13:01:00;12.00;99.90
17092;DHT22;8661;45.700;4.880;2022-11-25T13:03:55;12.00;99.90
17092;DHT22;8661;45.700;4.880;2022-11-25T13:06:48;11.90;99.90
17092;DHT22;8661;45.700;4.880;2022-11-25T13:09:35;11.90;99.90
17092;DHT22;8661;45.700;4.880;2022-11-25T13:12:19;11.90;99.90
17092;DHT22;8661;45.700;4.880;2022-11-25T13:15:16;11.90;99.90
17092;DHT22;8661;45.700;4.880;2022-11-25T13:17:47;11.80;99.90
17092;DHT22;8661;45.700;4.880;2022-11-25T13:20:41;11.80;99.90
17092;DHT22;8661;45.700;4.880;2022-11-25T13:23:24;11.70;99.90
17092;DHT22;8661;45.700;4.880;2022-11-25T13:25:53;11.70;99.90
17092;DHT22;8661;45.700;4.880;2022-11-25T13:28:39;11.70;99.90
17092;DHT22;8661;45.700;4.880;2022-11-25T13:31:20;11.60;99.90
17092;DHT22;8661;45.700;4.880;2022-11-25T13:34:05;11.60;99.90
17092;DHT22;8661;45.700;4.880;2022-11-25T13:36:47;11.50;99.90
17092;DHT22;8661;45.700;4.880;2022-11-25T13:39:17;11.50;99.90
17092;DHT22;8661;45.700;4.880;2022-11-25T13:41:58;11.50;99.90
17092;DHT22;8661;45.700;4.880;2022-11-25T13:44:27;11.50;99.90
17092;DHT22;8661;45.700;4.880;2022-11-25T13:49:59;11.50;99.90
17092;DHT22;8661;45.700;4.880;2022-11-25T13:52:36;11.50;99.90
17092;DHT22;8661;45.700;4.880;2022-11-25T13:58:02;11.60;99.90
17092;DHT22;8661;45.700;4.880;2022-11-25T14:01:02;11.60;99.90
17092;DHT22;8661;45.700;4.880;2022-11-25T14:03:52;11.50;99.90
17092;DHT22;8661;45.700;4.880;2022-11-25T14:06:30;11.50;99.90
17092;DHT22;8661;45.700;4.880;2022-11-25T14:09:02;11.50;99.90
17092;DHT22;8661;45.700;4.880;2022-11-25T14:11:43;11.50;99.90
17092;DHT22;8661;45.700;4.880;2022-11-25T14:14:41;11.40;99.90
17092;DHT22;8661;45.700;4.880;2022-11-25T14:17:27;11.40;99.90
17092;DHT22;8661;45.700;4.880;2022-11-25T14:20:04;11.40;99.90
17092;DHT22;8661;45.700;4.880;2022-11-25T14:23:11;11.30;99.90
17092;DHT22;8661;45.700;4.880;2022-11-25T14:25:47;11.30;99.90
17092;DHT22;8661;45.700;4.880;2022-11-25T14:28:23;11.30;99.90
17092;DHT22;8661;45.700;4.880;2022-11-25T14:30:53;11.30;99.90
17092;DHT22;8661;45.700;4.880;2022-11-25T14:33:28;11.30;99.90
17092;DHT22;8661;45.700;4.880;2022-11-25T14:36:02;11.20;99.90
17092;DHT22;8661;45.700;4.880;2022-11-25T14:38:37;11.20;99.90
17092;DHT22;8661;45.700;4.880;2022-11-25T14:41:12;11.20;99.90
17092;DHT22;8661;45.700;4.880;2022-11-25T14:43:45;11.20;99.90
17092;DHT22;8661;45.700;4.880;2022-11-25T14:46:17;11.10;99.90
17092;DHT22;8661;45.700;4.880;2022-11-25T14:48:52;11.00;99.90
17092;DHT22;8661;45.700;4.880;2022-11-25T14:51:20;11.00;99.90
17092;DHT22;8661;45.700;4.880;2022-11-25T14:53:49;11.00;99.90
17092;DHT22;8661;45.700;4.880;2022-11-25T14:56:23;11.00;99.90
17092;DHT22;8661;45.700;4.880;2022-11-25T14:58:54;11.00;99.90
17092;DHT22;8661;45.700;4.880;2022-11-25T15:01:23;10.90;99.90
17092;DHT22;8661;45.700;4.880;2022-11-25T15:04:01;10.90;99.90
17092;DHT22;8661;45.700;4.880;2022-11-25T15:06:32;10.90;99.90
17092;DHT22;8661;45.700;4.880;2022-11-25T15:09:01;10.90;99.90
17092;DHT22;8661;45.700;4.880;2022-11-25T15:11:30;10.80;99.90
17092;DHT22;8661;45.700;4.880;2022-11-25T15:14:00;10.80;99.90
17092;DHT22;8661;45.700;4.880;2022-11-25T15:16:32;10.70;99.90
17092;DHT22;8661;45.700;4.880;2022-11-25T15:19:02;10.80;99.90
17092;DHT22;8661;45.700;4.880;2022-11-25T15:21:31;10.70;99.90
17092;DHT22;8661;45.700;4.880;2022-11-25T15:24:01;10.70;99.90
17092;DHT22;8661;45.700;4.880;2022-11-25T15:26:29;10.70;99.90
17092;DHT22;8661;45.700;4.880;2022-11-25T15:28:58;10.70;99.90
17092;DHT22;8661;45.700;4.880;2022-11-25T15:31:28;10.60;99.90
17092;DHT22;8661;45.700;4.880;2022-11-25T15:33:57;10.60;99.90
17092;DHT22;8661;45.700;4.880;2022-11-25T15:36:25;10.70;99.90
17092;DHT22;8661;45.700;4.880;2022-11-25T15:38:53;10.70;99.90
17092;DHT22;8661;45.700;4.880;2022-11-25T15:41:29;10.60;99.90
17092;DHT22;8661;45.700;4.880;2022-11-25T15:43:59;10.60;99.90
17092;DHT22;8661;45.700;4.880;2022-11-25T15:46:28;10.60;99.90
17092;DHT22;8661;45.700;4.880;2022-11-25T15:48:58;10.50;99.90
17092;DHT22;8661;45.700;4.880;2022-11-25T15:51:36;10.50;99.90
17092;DHT22;8661;45.700;4.880;2022-11-25T15:54:07;10.50;99.90
17092;DHT22;8661;45.700;4.880;2022-11-25T15:56:45;10.40;99.90
17092;DHT22;8661;45.700;4.880;2022-11-25T15:59:39;10.40;99.90
17092;DHT22;8661;45.700;4.880;2022-11-25T16:02:35;10.30;99.90
17092;DHT22;8661;45.700;4.880;2022-11-25T16:05:26;10.40;99.90
17092;DHT22;8661;45.700;4.880;2022-11-25T16:10:51;10.30;99.90
17092;DHT22;8661;45.700;4.880;2022-11-25T16:13:30;10.30;99.90
17092;DHT22;8661;45.700;4.880;2022-11-25T16:16:01;10.20;99.90
17092;DHT22;8661;45.700;4.880;2022-11-25T16:18:35;10.30;99.90
17092;DHT22;8661;45.700;4.880;2022-11-25T16:21:05;10.30;99.90
17092;DHT22;8661;45.700;4.880;2022-11-25T16:23:34;10.30;99.90
17092;DHT22;8661;45.700;4.880;2022-11-25T16:26:03;10.30;99.90
17092;DHT22;8661;45.700;4.880;2022-11-25T16:28:32;10.30;99.90